createdAt,value
2022-09-24T00:02:50.132Z,12.55
2022-09-24T00:05:53.765Z,12.56
2022-09-24T00:08:58.722Z,12.56
2022-09-24T00:12:03.464Z,12.57
2022-09-24T00:15:07.138Z,12.55
2022-09-24T00:18:11.753Z,12.54
2022-09-24T00:21:16.329Z,12.54
2022-09-24T00:24:34.525Z,12.56
2022-09-24T00:27:37.168Z,12.59
2022-09-24T00:30:40.473Z,12.57
2022-09-24T00:33:43.310Z,12.57
2022-09-24T00:36:46.717Z,12.52
2022-09-24T00:39:50.783Z,12.49
2022-09-24T00:42:53.398Z,12.47
2022-09-24T00:46:00.433Z,12.47
2022-09-24T00:49:07.254Z,12.47
2022-09-24T00:52:10.141Z,12.50
2022-09-24T00:55:15.652Z,12.54
2022-09-24T00:58:19.323Z,12.53
2022-09-24T01:01:24.629Z,12.52
2022-09-24T01:04:29.042Z,12.55
2022-09-24T01:07:31.759Z,12.56
2022-09-24T01:10:50.944Z,12.57
2022-09-24T01:14:23.893Z,12.56
2022-09-24T01:17:31.614Z,12.54
2022-09-24T01:21:16.945Z,12.53
2022-09-24T01:24:44.499Z,12.50
2022-09-24T01:28:05.986Z,12.47
2022-09-24T01:31:15.517Z,12.46
2022-09-24T01:34:26.961Z,12.40
2022-09-24T01:37:34.236Z,12.39
2022-09-24T01:40:40.570Z,12.34
2022-09-24T01:43:44.261Z,12.31
2022-09-24T01:46:48.664Z,12.26
2022-09-24T01:49:53.390Z,12.19
2022-09-24T01:53:01.295Z,12.10
2022-09-24T01:56:08.857Z,12.02
2022-09-24T01:59:15.680Z,11.96
2022-09-24T02:02:27.670Z,11.93
2022-09-24T02:05:35.443Z,11.90
2022-09-24T02:08:40.930Z,11.90
2022-09-24T02:11:44.197Z,11.84
2022-09-24T02:14:50.900Z,11.83
2022-09-24T02:17:59.073Z,11.84
2022-09-24T02:21:06.710Z,11.83
2022-09-24T02:24:15.897Z,11.82
2022-09-24T02:27:19.691Z,11.79
2022-09-24T02:30:22.563Z,11.77
2022-09-24T02:33:46.343Z,11.80
2022-09-24T02:36:50.214Z,11.81
2022-09-24T02:39:53.667Z,11.87
2022-09-24T02:42:56.295Z,11.87
2022-09-24T02:45:58.918Z,11.84
2022-09-24T02:49:02.927Z,11.83
2022-09-24T02:52:05.595Z,11.82
2022-09-24T02:55:08.834Z,11.87
2022-09-24T02:58:11.672Z,11.86
2022-09-24T03:01:14.565Z,11.89
2022-09-24T03:04:18.724Z,11.93
2022-09-24T03:07:21.775Z,11.95
2022-09-24T03:10:24.477Z,11.93
2022-09-24T03:13:27.129Z,11.85
2022-09-24T03:16:29.864Z,11.78
2022-09-24T03:19:33.901Z,11.76
2022-09-24T03:22:36.646Z,11.78
2022-09-24T03:25:39.245Z,11.86
2022-09-24T03:28:42.576Z,11.92
2022-09-24T03:31:45.486Z,11.95
2022-09-24T03:34:49.513Z,11.97
2022-09-24T03:37:52.345Z,11.95
2022-09-24T03:40:55.258Z,11.95
2022-09-24T03:43:58.165Z,11.98
2022-09-24T03:47:01.316Z,11.95
2022-09-24T03:50:05.945Z,11.96
2022-09-24T03:53:08.696Z,11.97
2022-09-24T03:56:12.743Z,11.98
2022-09-24T03:59:15.427Z,11.99
2022-09-24T04:02:18.090Z,12.02
2022-09-24T04:05:22.117Z,12.06
2022-09-24T04:08:25.949Z,12.06
2022-09-24T04:11:28.583Z,12.07
2022-09-24T04:14:31.339Z,12.01
2022-09-24T04:17:34.050Z,12.04
2022-09-24T04:20:38.638Z,12.10
2022-09-24T04:23:41.241Z,12.13
2022-09-24T04:26:43.947Z,12.14
2022-09-24T04:29:46.575Z,12.16
2022-09-24T04:32:51.254Z,12.13
2022-09-24T04:35:55.216Z,12.13
2022-09-24T04:38:57.984Z,12.17
2022-09-24T04:42:00.656Z,12.20
2022-09-24T04:45:03.778Z,12.23
2022-09-24T04:48:06.645Z,12.25
2022-09-24T04:51:10.754Z,12.27
2022-09-24T04:54:13.961Z,12.27
2022-09-24T04:57:17.297Z,12.25
2022-09-24T05:00:21.894Z,12.25
2022-09-24T05:03:24.539Z,12.27
2022-09-24T05:06:28.710Z,12.27
2022-09-24T05:09:32.098Z,12.23
2022-09-24T05:12:35.373Z,12.17
2022-09-24T05:15:42.871Z,12.18
2022-09-24T05:18:45.862Z,12.16
2022-09-24T05:21:50.005Z,12.18
2022-09-24T05:24:52.653Z,12.17
2022-09-24T05:27:56.594Z,12.16
2022-09-24T05:30:59.755Z,12.15
2022-09-24T05:34:03.531Z,12.20
2022-09-24T05:37:07.872Z,12.23
2022-09-24T05:40:31.127Z,12.24
2022-09-24T05:43:34.098Z,12.25
2022-09-24T05:46:36.773Z,12.27
2022-09-24T05:49:39.439Z,12.26
2022-09-24T05:52:43.440Z,12.28
2022-09-24T05:55:46.463Z,12.28
2022-09-24T05:58:51.211Z,12.31
2022-09-24T06:01:54.308Z,12.38
2022-09-24T06:04:57.070Z,12.46
2022-09-24T06:08:01.346Z,12.53
2022-09-24T06:11:06.422Z,12.57
2022-09-24T06:14:09.717Z,12.61
2022-09-24T06:17:12.366Z,12.69
2022-09-24T06:20:15.954Z,12.76
2022-09-24T06:23:19.945Z,12.83
2022-09-24T06:26:22.942Z,12.91
2022-09-24T06:29:25.598Z,12.92
2022-09-24T06:32:28.218Z,12.93
2022-09-24T06:35:30.835Z,12.98
2022-09-24T06:38:35.285Z,13.05
2022-09-24T06:41:37.909Z,13.07
2022-09-24T06:44:40.594Z,13.12
2022-09-24T06:47:43.207Z,13.14
2022-09-24T06:50:47.332Z,13.17
2022-09-24T06:53:53.325Z,13.23
2022-09-24T06:56:55.953Z,13.30
2022-09-24T06:59:58.538Z,13.32
2022-09-24T07:03:01.198Z,13.34
2022-09-24T07:06:05.767Z,13.37
2022-09-24T07:09:09.858Z,13.38
2022-09-24T07:12:12.842Z,13.41
2022-09-24T07:15:15.591Z,13.46
2022-09-24T07:18:19.751Z,13.52
2022-09-24T07:21:22.391Z,13.57
2022-09-24T07:24:26.386Z,13.61
2022-09-24T07:27:29.038Z,13.60
2022-09-24T07:30:32.049Z,13.63
2022-09-24T07:33:34.654Z,13.69
2022-09-24T07:36:37.518Z,13.72
2022-09-24T07:39:41.480Z,13.77
2022-09-24T07:42:48.388Z,13.83
2022-09-24T07:45:51.160Z,13.88
2022-09-24T07:48:54.258Z,13.92
2022-09-24T07:51:56.938Z,13.98
2022-09-24T07:55:01.353Z,14.04
2022-09-24T07:58:04.061Z,14.06
2022-09-24T08:01:07.176Z,14.10
2022-09-24T08:04:10.394Z,14.15
2022-09-24T08:07:14.333Z,14.23
2022-09-24T08:10:18.834Z,14.31
2022-09-24T08:13:26.731Z,14.39
2022-09-24T08:16:30.403Z,14.49
2022-09-24T08:19:33.195Z,14.59
2022-09-24T08:22:35.965Z,14.73
2022-09-24T08:25:40.134Z,14.84
2022-09-24T08:28:42.995Z,14.89
2022-09-24T08:31:45.685Z,14.98
2022-09-24T08:34:48.333Z,15.03
2022-09-24T08:37:51.181Z,15.12
2022-09-24T08:41:02.056Z,15.22
2022-09-24T08:44:09.459Z,15.36
2022-09-24T08:47:23.742Z,15.50
2022-09-24T08:50:28.906Z,15.58
2022-09-24T08:53:40.114Z,15.72
2022-09-24T08:56:47.366Z,15.76
2022-09-24T08:59:53.345Z,15.86
2022-09-24T09:03:02.607Z,15.98
2022-09-24T09:06:11.569Z,16.16
2022-09-24T09:09:19.569Z,16.40
2022-09-24T09:12:28.722Z,16.64
2022-09-24T09:15:35.359Z,17.04
2022-09-24T09:18:41.724Z,17.55
2022-09-24T09:21:52.479Z,17.92
2022-09-24T09:25:03.622Z,18.10
2022-09-24T09:28:14.994Z,18.08
2022-09-24T09:31:32.709Z,18.00
2022-09-24T09:34:51.697Z,17.72
2022-09-24T09:38:01.274Z,17.49
2022-09-24T09:41:11.429Z,17.34
2022-09-24T09:44:19.452Z,17.27
2022-09-24T09:47:31.419Z,17.12
2022-09-24T09:50:39.429Z,17.01
2022-09-24T09:53:42.439Z,16.96
2022-09-24T09:56:48.902Z,16.84
2022-09-24T09:59:54.846Z,16.81
2022-09-24T10:02:57.895Z,16.75
2022-09-24T10:06:02.822Z,16.72
2022-09-24T10:09:13.442Z,16.73
2022-09-24T10:12:18.347Z,16.77
2022-09-24T10:15:25.640Z,16.71
2022-09-24T10:18:32.714Z,16.67
2022-09-24T10:21:37.946Z,16.62
2022-09-24T10:24:44.455Z,16.49
2022-09-24T10:27:48.105Z,16.45
2022-09-24T10:30:56.969Z,16.43
2022-09-24T10:34:02.326Z,16.40
2022-09-24T10:37:15.362Z,16.38
2022-09-24T10:40:24.129Z,16.40
2022-09-24T10:43:26.816Z,16.35
2022-09-24T10:47:04.703Z,16.36
2022-09-24T10:50:25.218Z,16.33
2022-09-24T10:53:41.543Z,16.37
2022-09-24T10:56:47.610Z,16.47
2022-09-24T10:59:59.529Z,16.62
2022-09-24T11:03:34.234Z,16.90
2022-09-24T11:06:48.383Z,17.17
2022-09-24T11:09:56.523Z,17.27
2022-09-24T11:13:09.086Z,17.41
2022-09-24T11:16:43.510Z,17.44
2022-09-24T11:20:13.938Z,17.46
2022-09-24T11:23:45.294Z,17.44
2022-09-24T11:27:04.526Z,17.42
2022-09-24T11:30:13.427Z,17.38
2022-09-24T11:33:31.746Z,17.21
2022-09-24T11:36:53.282Z,17.12
2022-09-24T11:40:13.207Z,17.08
2022-09-24T11:43:36.440Z,17.05
2022-09-24T11:46:49.040Z,17.06
2022-09-24T11:50:10.989Z,17.01
2022-09-24T11:53:19.763Z,17.11
2022-09-24T11:56:29.707Z,17.09
2022-09-24T11:59:39.945Z,17.06
2022-09-24T12:02:47.316Z,17.00
2022-09-24T12:05:56.770Z,16.92
2022-09-24T12:09:08.435Z,16.86
2022-09-24T12:12:16.297Z,16.79
2022-09-24T12:15:23.983Z,16.77
2022-09-24T12:18:30.196Z,16.71
2022-09-24T12:21:40.552Z,16.64
2022-09-24T12:24:50.783Z,16.57
2022-09-24T12:27:53.980Z,16.49
2022-09-24T12:31:18.955Z,16.44
2022-09-24T12:34:31.169Z,16.36
2022-09-24T12:37:39.023Z,16.30
2022-09-24T12:41:11.096Z,16.24
2022-09-24T12:44:22.158Z,16.19
2022-09-24T12:47:28.012Z,16.11
2022-09-24T12:50:33.924Z,16.07
2022-09-24T12:53:38.974Z,16.05
2022-09-24T12:56:43.159Z,16.06
2022-09-24T12:59:51.773Z,16.07
2022-09-24T13:02:55.061Z,16.11
2022-09-24T13:06:00.142Z,16.20
2022-09-24T13:09:25.636Z,16.27
2022-09-24T13:12:35.817Z,16.31
2022-09-24T13:15:48.383Z,16.28
2022-09-24T13:19:00.886Z,16.31
2022-09-24T13:22:09.339Z,16.31
2022-09-24T13:25:23.755Z,16.20
2022-09-24T13:28:39.304Z,16.17
2022-09-24T13:31:57.991Z,16.20
2022-09-24T13:35:21.954Z,16.18
2022-09-24T13:38:46.982Z,16.21
2022-09-24T13:42:03.272Z,16.22
2022-09-24T13:45:18.025Z,16.23
2022-09-24T13:48:36.142Z,16.29
2022-09-24T13:51:48.871Z,16.36
2022-09-24T13:54:59.148Z,16.42
2022-09-24T13:58:09.193Z,16.47
2022-09-24T14:01:21.294Z,16.52
2022-09-24T14:04:30.796Z,16.58
2022-09-24T14:07:46.071Z,16.61
2022-09-24T14:10:58.150Z,16.66
2022-09-24T14:14:18.919Z,16.72
2022-09-24T14:17:25.920Z,16.70
2022-09-24T14:20:35.053Z,16.64
2022-09-24T14:23:45.351Z,16.56
2022-09-24T14:26:55.139Z,16.53
2022-09-24T14:30:04.545Z,16.51
2022-09-24T14:33:18.231Z,16.50
2022-09-24T14:36:29.503Z,16.52
2022-09-24T14:39:38.760Z,16.54
2022-09-24T14:42:46.900Z,16.56
2022-09-24T14:45:52.855Z,16.59
2022-09-24T14:49:11.137Z,16.58
2022-09-24T14:52:29.587Z,16.64
2022-09-24T14:55:42.402Z,16.65
2022-09-24T14:58:47.484Z,16.65
2022-09-24T15:01:52.589Z,16.67
2022-09-24T15:05:06.287Z,16.69
2022-09-24T15:08:25.013Z,16.71
2022-09-24T15:11:31.807Z,16.69
2022-09-24T15:14:37.249Z,16.74
2022-09-24T15:17:42.375Z,16.81
2022-09-24T15:20:48.850Z,16.87
2022-09-24T15:23:55.129Z,16.87
2022-09-24T15:27:05.494Z,16.83
2022-09-24T15:30:14.770Z,16.74
2022-09-24T15:33:19.869Z,16.71
2022-09-24T15:36:28.168Z,16.65
2022-09-24T15:39:33.195Z,16.62
2022-09-24T15:42:37.937Z,16.58
2022-09-24T15:45:42.431Z,16.55
2022-09-24T15:48:47.453Z,16.50
2022-09-24T15:51:57.403Z,16.47
2022-09-24T15:55:04.955Z,16.42
2022-09-24T15:58:18.554Z,16.42
2022-09-24T16:01:24.443Z,16.37
2022-09-24T16:04:30.725Z,16.34
2022-09-24T16:07:37.164Z,16.34
2022-09-24T16:10:42.619Z,16.32
2022-09-24T16:13:47.659Z,16.25
2022-09-24T16:16:52.414Z,16.24
2022-09-24T16:19:57.330Z,16.21
2022-09-24T16:23:01.819Z,16.18
2022-09-24T16:26:04.634Z,16.13
2022-09-24T16:29:10.004Z,16.07
2022-09-24T16:32:13.826Z,16.03
2022-09-24T16:35:16.728Z,16.00
2022-09-24T16:38:23.194Z,15.96
2022-09-24T16:41:26.150Z,15.95
2022-09-24T16:44:28.749Z,15.89
2022-09-24T16:47:31.369Z,15.86
2022-09-24T16:50:34.353Z,15.86
2022-09-24T16:53:39.013Z,15.85
2022-09-24T16:56:41.658Z,15.82
2022-09-24T16:59:44.352Z,15.79
2022-09-24T17:02:47.028Z,15.76
2022-09-24T17:05:49.791Z,15.73
2022-09-24T17:09:11.456Z,15.74
2022-09-24T17:12:14.097Z,15.68
2022-09-24T17:15:19.881Z,15.63
2022-09-24T17:18:22.538Z,15.61
2022-09-24T17:21:25.318Z,15.59
2022-09-24T17:24:30.273Z,15.57
2022-09-24T17:27:34.878Z,15.53
2022-09-24T17:30:37.936Z,15.53
2022-09-24T17:33:43.661Z,15.54
2022-09-24T17:36:48.759Z,15.55
2022-09-24T17:39:52.902Z,15.55
2022-09-24T17:42:55.558Z,15.53
2022-09-24T17:45:59.360Z,15.50
2022-09-24T17:49:05.073Z,15.45
2022-09-24T17:52:10.214Z,15.44
2022-09-24T17:55:14.262Z,15.42
2022-09-24T17:58:17.120Z,15.42
2022-09-24T18:01:21.992Z,15.41
2022-09-24T18:04:26.887Z,15.41
2022-09-24T18:07:30.566Z,15.38
2022-09-24T18:10:34.738Z,15.39
2022-09-24T18:13:37.795Z,15.39
2022-09-24T18:16:40.490Z,15.36
2022-09-24T18:19:43.262Z,15.34
2022-09-24T18:22:46.252Z,15.33
2022-09-24T18:25:50.460Z,15.32
2022-09-24T18:28:55.758Z,15.30
2022-09-24T18:31:58.630Z,15.29
2022-09-24T18:35:01.458Z,15.23
2022-09-24T18:38:04.136Z,15.18
2022-09-24T18:41:10.126Z,15.16
2022-09-24T18:44:12.881Z,15.16
2022-09-24T18:47:15.534Z,15.15
2022-09-24T18:50:18.353Z,15.13
2022-09-24T18:53:21.025Z,15.09
2022-09-24T18:56:25.785Z,15.03
2022-09-24T18:59:29.181Z,15.01
2022-09-24T19:02:32.343Z,15.00
2022-09-24T19:05:35.256Z,14.98
2022-09-24T19:08:39.339Z,14.98
2022-09-24T19:11:45.910Z,14.97
2022-09-24T19:14:49.917Z,14.96
2022-09-24T19:17:54.243Z,14.95
2022-09-24T19:20:59.106Z,14.92
2022-09-24T19:24:04.215Z,14.91
2022-09-24T19:27:09.280Z,14.93
2022-09-24T19:30:13.922Z,14.92
2022-09-24T19:33:18.460Z,14.89
2022-09-24T19:36:23.326Z,14.86
2022-09-24T19:39:27.290Z,14.84
2022-09-24T19:42:34.953Z,14.86
2022-09-24T19:45:42.617Z,14.84
2022-09-24T19:48:49.322Z,14.81
2022-09-24T19:51:54.895Z,14.81
2022-09-24T19:54:59.729Z,14.80
2022-09-24T19:58:06.215Z,14.76
2022-09-24T20:01:16.855Z,14.78
2022-09-24T20:04:22.384Z,14.80
2022-09-24T20:07:28.009Z,14.81
2022-09-24T20:10:33.329Z,14.72
2022-09-24T20:13:46.671Z,14.66
2022-09-24T20:16:51.701Z,14.68
2022-09-24T20:19:56.885Z,14.68
2022-09-24T20:23:02.127Z,14.67
2022-09-24T20:26:24.096Z,14.66
2022-09-24T20:29:31.552Z,14.64
2022-09-24T20:32:37.631Z,14.61
2022-09-24T20:35:43.680Z,14.62
2022-09-24T20:39:05.200Z,14.61
2022-09-24T20:42:10.108Z,14.60
2022-09-24T20:45:16.688Z,14.58
2022-09-24T20:48:21.854Z,14.54
2022-09-24T20:51:31.464Z,14.50
2022-09-24T20:54:34.679Z,14.49
2022-09-24T20:57:37.354Z,14.50
2022-09-24T21:00:48.535Z,14.50
2022-09-24T21:03:52.771Z,14.50
2022-09-24T21:06:55.633Z,14.49
2022-09-24T21:09:58.246Z,14.48
2022-09-24T21:13:00.864Z,14.46
2022-09-24T21:16:05.230Z,14.42
2022-09-24T21:19:08.592Z,14.43
2022-09-24T21:22:13.567Z,14.44
2022-09-24T21:25:36.135Z,14.40
2022-09-24T21:28:39.248Z,14.39
2022-09-24T21:31:45.871Z,14.39
2022-09-24T21:34:48.465Z,14.36
2022-09-24T21:37:54.539Z,14.39
2022-09-24T21:40:58.729Z,14.35
2022-09-24T21:44:03.109Z,14.38
2022-09-24T21:47:07.522Z,14.39
2022-09-24T21:50:10.859Z,14.41
2022-09-24T21:53:13.559Z,14.39
2022-09-24T21:56:18.784Z,14.40
2022-09-24T21:59:39.353Z,14.42
2022-09-24T22:02:44.889Z,14.39
2022-09-24T22:05:47.726Z,14.38
2022-09-24T22:08:51.249Z,14.39
2022-09-24T22:11:55.735Z,14.42
2022-09-24T22:14:58.435Z,14.42
2022-09-24T22:18:03.205Z,14.46
2022-09-24T22:21:08.242Z,14.44
2022-09-24T22:24:11.113Z,14.42
2022-09-24T22:27:14.042Z,14.44
2022-09-24T22:30:16.931Z,14.43
2022-09-24T22:33:38.789Z,14.43
2022-09-24T22:36:41.754Z,14.43
2022-09-24T22:39:44.438Z,14.42
2022-09-24T22:42:47.105Z,14.41
2022-09-24T22:45:50.398Z,14.35
2022-09-24T22:48:54.863Z,14.33
2022-09-24T22:51:57.477Z,14.34
2022-09-24T22:55:00.107Z,14.35
2022-09-24T22:58:02.703Z,14.41
2022-09-24T23:01:09.469Z,14.41
2022-09-24T23:04:15.322Z,14.39
2022-09-24T23:07:18.098Z,14.35
2022-09-24T23:10:20.847Z,14.32
2022-09-24T23:13:24.644Z,14.32
2022-09-24T23:16:29.690Z,14.32
2022-09-24T23:19:47.635Z,14.30
2022-09-24T23:22:50.831Z,14.32
2022-09-24T23:25:53.426Z,14.28
2022-09-24T23:29:02.476Z,14.23
2022-09-24T23:32:05.549Z,14.16
2022-09-24T23:35:10.163Z,14.11
2022-09-24T23:38:12.757Z,14.06
2022-09-24T23:41:15.747Z,14.05
2022-09-24T23:44:18.403Z,13.99
2022-09-24T23:47:21.018Z,13.94
2022-09-24T23:50:25.190Z,13.95
2022-09-24T23:53:28.385Z,13.93
2022-09-24T23:56:31.074Z,13.84
2022-09-24T23:59:34.276Z,13.82
